Time,TemperatureF,DewpointF,PressureIn,WindDirection,WindDirectionDegrees,WindSpeedMPH,WindSpeedGustMPH,Humidity,HourlyPrecipIn,Conditions,Clouds,dailyrainin,SoftwareType,DateUTC
2013-01-22 00:07:00,49.2,40.6,30.17,North,5,0.0,0.0,72,0.00,,,0.00,Wunderground v.1.15,2013-01-22 06:07:00,
2013-01-22 00:17:00,48.8,40.5,30.17,North,355,0.0,0.0,73,0.00,,,0.00,Wunderground v.1.15,2013-01-22 06:17:00,
2013-01-22 00:22:00,48.7,40.4,30.18,NNE,28,0.0,0.0,73,0.00,,,0.00,Wunderground v.1.15,2013-01-22 06:22:00,
2013-01-22 00:27:00,48.5,40.6,30.18,ENE,65,0.0,0.0,74,0.00,,,0.00,Wunderground v.1.15,2013-01-22 06:27:00,
2013-01-22 00:32:00,48.3,40.0,30.18,NE,40,0.0,0.0,73,0.00,,,0.00,Wunderground v.1.15,2013-01-22 06:32:00,
2013-01-22 00:37:00,48.1,39.9,30.17,NE,34,0.0,0.0,73,0.00,,,0.00,Wunderground v.1.15,2013-01-22 06:37:00,
2013-01-22 00:42:00,48.0,40.1,30.18,NE,34,0.0,0.0,74,0.00,,,0.00,Wunderground v.1.15,2013-01-22 06:42:00,
2013-01-22 00:47:00,47.8,39.9,30.18,North,355,0.0,2.0,74,0.00,,,0.00,Wunderground v.1.15,2013-01-22 06:47:00,
2013-01-22 00:52:00,47.7,39.5,30.18,ENE,64,0.0,2.0,73,0.00,,,0.00,Wunderground v.1.15,2013-01-22 06:52:00,
2013-01-22 00:57:00,47.5,39.3,30.18,ESE,106,0.0,0.0,73,0.00,,,0.00,Wunderground v.1.15,2013-01-22 06:57:00,
2013-01-22 01:07:00,47.3,39.1,30.18,NNE,16,0.0,0.0,73,0.00,,,0.00,Wunderground v.1.15,2013-01-22 07:07:00,
2013-01-22 01:12:00,47.2,39.0,30.19,SE,142,0.0,0.0,73,0.00,,,0.00,Wunderground v.1.15,2013-01-22 07:12:00,
2013-01-22 01:17:00,47.0,38.4,30.19,NNE,18,0.0,0.0,72,0.00,,,0.00,Wunderground v.1.15,2013-01-22 07:17:00,
2013-01-22 01:22:00,46.9,38.3,30.19,NNE,18,1.0,1.0,72,0.00,,,0.00,Wunderground v.1.15,2013-01-22 07:22:00,
2013-01-22 01:27:00,46.8,38.2,30.19,North,11,0.0,1.0,72,0.00,,,0.00,Wunderground v.1.15,2013-01-22 07:27:00,
2013-01-22 01:32:00,46.7,38.1,30.19,NNE,12,0.0,1.0,72,0.00,,,0.00,Wunderground v.1.15,2013-01-22 07:32:00,
2013-01-22 01:37:00,46.6,38.1,30.19,North,9,0.0,0.0,72,0.00,,,0.00,Wunderground v.1.15,2013-01-22 07:37:00,
2013-01-22 01:42:00,46.5,38.0,30.19,NNE,24,0.0,0.0,72,0.00,,,0.00,Wunderground v.1.15,2013-01-22 07:42:00,
2013-01-22 01:47:00,46.4,37.5,30.19,NNE,12,0.0,0.0,71,0.00,,,0.00,Wunderground v.1.15,2013-01-22 07:47:00,
2013-01-22 01:57:00,46.1,37.6,30.19,NNE,12,0.0,0.0,72,0.00,,,0.00,Wunderground v.1.15,2013-01-22 07:57:00,
2013-01-22 02:07:00,46.0,37.5,30.20,North,5,0.0,0.0,72,0.00,,,0.00,Wunderground v.1.15,2013-01-22 08:07:00,
2013-01-22 02:12:00,46.0,37.5,30.20,North,5,0.0,0.0,72,0.00,,,0.00,Wunderground v.1.15,2013-01-22 08:12:00,
2013-01-22 02:17:00,-999.9,-99.9,30.20,North,32767,-999.0,0.0,255,-99.99,,,0.00,Wunderground v.1.15,2013-01-22 08:17:00,
2013-01-22 02:22:00,-999.9,-99.9,30.20,North,32767,-999.0,0.0,255,-99.99,,,0.00,Wunderground v.1.15,2013-01-22 08:22:00,
2013-01-22 02:27:00,-999.9,-99.9,30.20,North,32767,-999.0,0.0,255,-99.99,,,0.00,Wunderground v.1.15,2013-01-22 08:27:00,
2013-01-22 02:32:00,-999.9,-99.9,30.20,North,32767,-999.0,0.0,255,-99.99,,,0.00,Wunderground v.1.15,2013-01-22 08:32:00,
2013-01-22 02:37:00,-999.9,-99.9,30.20,North,32767,-999.0,0.0,255,-99.99,,,0.00,Wunderground v.1.15,2013-01-22 08:37:00,
2013-01-22 02:42:00,-999.9,-99.9,30.20,North,32767,-999.0,0.0,255,-99.99,,,0.00,Wunderground v.1.15,2013-01-22 08:42:00,
2013-01-22 02:47:00,44.9,36.1,30.20,NNE,32,0.0,0.0,71,0.00,,,0.00,Wunderground v.1.15,2013-01-22 08:47:00,
2013-01-22 02:52:00,44.7,35.9,30.20,NNE,19,0.0,1.0,71,0.00,,,0.00,Wunderground v.1.15,2013-01-22 08:52:00,
2013-01-22 02:57:00,44.6,35.8,30.20,NNE,21,1.0,1.0,71,0.00,,,0.00,Wunderground v.1.15,2013-01-22 08:57:00,
2013-01-22 03:07:00,44.3,35.8,30.20,North,5,0.0,0.0,72,0.00,,,0.00,Wunderground v.1.15,2013-01-22 09:07:00,
2013-01-22 03:12:00,44.2,35.7,30.20,North,5,0.0,0.0,72,0.00,,,0.00,Wunderground v.1.15,2013-01-22 09:12:00,
2013-01-22 03:17:00,44.0,35.6,30.20,NNW,337,0.0,0.0,72,0.00,,,0.00,Wunderground v.1.15,2013-01-22 09:17:00,
2013-01-22 03:22:00,43.9,35.5,30.20,NNE,12,0.0,0.0,72,0.00,,,0.00,Wunderground v.1.15,2013-01-22 09:22:00,
2013-01-22 03:27:00,43.9,35.1,30.20,North,355,1.0,1.0,71,0.00,,,0.00,Wunderground v.1.15,2013-01-22 09:27:00,
2013-01-22 03:32:00,43.8,35.4,30.20,NNE,24,1.0,1.0,72,0.00,,,0.00,Wunderground v.1.15,2013-01-22 09:32:00,
2013-01-22 03:37:00,43.7,35.3,30.21,NNE,20,0.0,0.0,72,0.00,,,0.00,Wunderground v.1.15,2013-01-22 09:37:00,
2013-01-22 03:42:00,43.6,35.2,30.21,ENE,65,0.0,0.0,72,0.00,,,0.00,Wunderground v.1.15,2013-01-22 09:42:00,
2013-01-22 03:47:00,43.5,35.1,30.21,North,355,0.0,2.0,72,0.00,,,0.00,Wunderground v.1.15,2013-01-22 09:47:00,
2013-01-22 03:52:00,43.4,35.0,30.21,NW,324,1.0,2.0,72,0.00,,,0.00,Wunderground v.1.15,2013-01-22 09:52:00,
2013-01-22 03:57:00,43.3,34.9,30.21,North,355,0.0,0.0,72,0.00,,,0.00,Wunderground v.1.15,2013-01-22 09:57:00,
2013-01-22 04:07:00,43.2,35.1,30.21,NNE,25,0.0,0.0,73,0.00,,,0.00,Wunderground v.1.15,2013-01-22 10:07:00,
2013-01-22 04:12:00,43.1,34.7,30.21,East,82,0.0,2.0,72,0.00,,,0.00,Wunderground v.1.15,2013-01-22 10:12:00,
2013-01-22 04:17:00,42.9,34.5,30.22,NE,36,0.0,0.0,72,0.00,,,0.00,Wunderground v.1.15,2013-01-22 10:17:00,
2013-01-22 04:22:00,42.9,34.5,30.22,NE,36,0.0,0.0,72,0.00,,,0.00,Wunderground v.1.15,2013-01-22 10:22:00,
2013-01-22 04:27:00,42.8,34.7,30.23,NNE,19,0.0,0.0,73,0.00,,,0.00,Wunderground v.1.15,2013-01-22 10:27:00,
2013-01-22 04:32:00,42.7,34.6,30.22,NNE,19,0.0,0.0,73,0.00,,,0.00,Wunderground v.1.15,2013-01-22 10:32:00,
2013-01-22 04:37:00,42.5,34.5,30.23,NE,40,0.0,0.0,73,0.00,,,0.00,Wunderground v.1.15,2013-01-22 10:37:00,
2013-01-22 04:42:00,42.4,34.4,30.23,NE,40,0.0,0.0,73,0.00,,,0.00,Wunderground v.1.15,2013-01-22 10:42:00,
2013-01-22 04:47:00,42.3,34.3,30.23,North,5,0.0,0.0,73,0.00,,,0.00,Wunderground v.1.15,2013-01-22 10:47:00,
2013-01-22 04:52:00,42.2,34.5,30.23,North,5,0.0,0.0,74,0.00,,,0.00,Wunderground v.1.15,2013-01-22 10:52:00,
2013-01-22 04:57:00,42.0,34.3,30.23,North,5,0.0,0.0,74,0.00,,,0.00,Wunderground v.1.15,2013-01-22 10:57:00,
2013-01-22 05:07:00,41.8,34.1,30.23,North,5,0.0,0.0,74,0.00,,,0.00,Wunderground v.1.15,2013-01-22 11:07:00,
2013-01-22 05:12:00,41.7,34.0,30.24,North,5,0.0,0.0,74,0.00,,,0.00,Wunderground v.1.15,2013-01-22 11:12:00,
2013-01-22 05:17:00,41.6,33.9,30.24,East,83,0.0,0.0,74,0.00,,,0.00,Wunderground v.1.15,2013-01-22 11:17:00,
2013-01-22 05:22:00,41.5,33.8,30.24,NNE,28,0.0,0.0,74,0.00,,,0.00,Wunderground v.1.15,2013-01-22 11:22:00,
2013-01-22 05:27:00,41.4,33.7,30.24,NNW,348,0.0,0.0,74,0.00,,,0.00,Wunderground v.1.15,2013-01-22 11:27:00,
2013-01-22 05:32:00,41.4,33.7,30.24,North,9,0.0,1.0,74,0.00,,,0.00,Wunderground v.1.15,2013-01-22 11:32:00,
2013-01-22 05:37:00,41.3,33.6,30.24,North,355,0.0,0.0,74,0.00,,,0.00,Wunderground v.1.15,2013-01-22 11:37:00,
2013-01-22 05:47:00,41.3,33.3,30.25,North,360,0.0,0.0,73,0.00,,,0.00,Wunderground v.1.15,2013-01-22 11:47:00,
2013-01-22 05:52:00,41.2,33.5,30.25,North,360,0.0,0.0,74,0.00,,,0.00,Wunderground v.1.15,2013-01-22 11:52:00,
2013-01-22 05:57:00,41.1,33.4,30.26,NNE,18,0.0,0.0,74,0.00,,,0.00,Wunderground v.1.15,2013-01-22 11:57:00,
2013-01-22 06:07:00,40.9,33.6,30.26,East,95,0.0,0.0,75,0.00,,,0.00,Wunderground v.1.15,2013-01-22 12:07:00,
2013-01-22 06:17:00,40.7,33.4,30.26,NNE,17,0.0,0.0,75,0.00,,,0.00,Wunderground v.1.15,2013-01-22 12:17:00,
2013-01-22 06:22:00,40.6,33.3,30.26,North,10,0.0,0.0,75,0.00,,,0.00,Wunderground v.1.15,2013-01-22 12:22:00,
2013-01-22 06:32:00,40.5,32.9,30.26,North,10,0.0,2.0,74,0.00,,,0.00,Wunderground v.1.15,2013-01-22 12:32:00,
2013-01-22 06:37:00,40.4,32.8,30.26,North,10,0.0,0.0,74,0.00,,,0.00,Wunderground v.1.15,2013-01-22 12:37:00,
2013-01-22 06:47:00,40.3,32.3,30.27,NE,51,0.0,0.0,73,0.00,,,0.00,Wunderground v.1.15,2013-01-22 12:47:00,
2013-01-22 06:52:00,40.2,32.2,30.27,NE,34,0.0,0.0,73,0.00,,,0.00,Wunderground v.1.15,2013-01-22 12:52:00,
2013-01-22 06:57:00,40.1,32.1,30.28,North,5,0.0,0.0,73,0.00,,,0.00,Wunderground v.1.15,2013-01-22 12:57:00,
2013-01-22 07:07:00,40.0,32.0,30.28,North,5,0.0,0.0,73,0.00,,,0.00,Wunderground v.1.15,2013-01-22 13:07:00,
2013-01-22 07:12:00,40.0,32.4,30.28,North,5,0.0,0.0,74,0.00,,,0.00,Wunderground v.1.15,2013-01-22 13:12:00,
2013-01-22 07:17:00,39.9,32.3,30.29,West,269,0.0,0.0,74,0.00,,,0.00,Wunderground v.1.15,2013-01-22 13:17:00,
2013-01-22 07:22:00,39.9,32.3,30.29,NNW,333,0.0,0.0,74,0.00,,,0.00,Wunderground v.1.15,2013-01-22 13:22:00,
2013-01-22 07:27:00,40.0,32.4,30.29,North,350,0.0,4.0,74,0.00,,,0.00,Wunderground v.1.15,2013-01-22 13:27:00,
2013-01-22 07:37:00,40.1,31.8,30.29,North,360,0.0,0.0,72,0.00,,,0.00,Wunderground v.1.15,2013-01-22 13:37:00,
2013-01-22 07:42:00,40.2,31.5,30.29,North,355,0.0,1.0,71,0.00,,,0.00,Wunderground v.1.15,2013-01-22 13:42:00,
2013-01-22 07:47:00,40.2,31.5,30.30,East,98,0.0,0.0,71,0.00,,,0.00,Wunderground v.1.15,2013-01-22 13:47:00,
2013-01-22 07:52:00,40.4,31.7,30.30,North,351,0.0,0.0,71,0.00,,,0.00,Wunderground v.1.15,2013-01-22 13:52:00,
2013-01-22 07:57:00,40.5,31.5,30.30,WSW,245,0.0,0.0,70,0.00,,,0.00,Wunderground v.1.15,2013-01-22 13:57:00,
2013-01-22 08:07:00,40.7,31.0,30.31,North,355,0.0,3.0,68,0.00,,,0.00,Wunderground v.1.15,2013-01-22 14:07:00,
2013-01-22 08:12:00,40.8,31.1,30.31,ENE,61,1.0,3.0,68,0.00,,,0.00,Wunderground v.1.15,2013-01-22 14:12:00,
2013-01-22 08:17:00,41.0,30.9,30.31,East,79,1.0,1.0,67,0.00,,,0.00,Wunderground v.1.15,2013-01-22 14:17:00,
2013-01-22 08:22:00,41.2,31.1,30.32,NE,46,0.0,1.0,67,0.00,,,0.00,Wunderground v.1.15,2013-01-22 14:22:00,
2013-01-22 08:27:00,41.4,31.3,30.32,NNE,31,0.0,0.0,67,0.00,,,0.00,Wunderground v.1.15,2013-01-22 14:27:00,
2013-01-22 08:32:00,41.7,31.5,30.32,NNE,29,0.0,0.0,67,0.00,,,0.00,Wunderground v.1.15,2013-01-22 14:32:00,
2013-01-22 08:37:00,42.0,31.5,30.32,North,355,1.0,1.0,66,0.00,,,0.00,Wunderground v.1.15,2013-01-22 14:37:00,
2013-01-22 08:42:00,42.3,31.0,30.32,NE,54,1.0,1.0,64,0.00,,,0.00,Wunderground v.1.15,2013-01-22 14:42:00,
2013-01-22 08:47:00,42.6,31.3,30.32,North,360,1.0,3.0,64,0.00,,,0.00,Wunderground v.1.15,2013-01-22 14:47:00,
2013-01-22 08:52:00,42.9,31.9,30.33,NNE,17,1.0,3.0,65,0.00,,,0.00,Wunderground v.1.15,2013-01-22 14:52:00,
2013-01-22 08:57:00,43.3,31.1,30.33,NNE,32,1.0,4.0,62,0.00,,,0.00,Wunderground v.1.15,2013-01-22 14:57:00,
2013-01-22 09:07:00,44.0,30.6,30.33,SSW,200,2.0,2.0,59,0.00,,,0.00,Wunderground v.1.15,2013-01-22 15:07:00,
2013-01-22 09:12:00,44.4,31.0,30.33,NNE,13,1.0,2.0,59,0.00,,,0.00,Wunderground v.1.15,2013-01-22 15:12:00,
2013-01-22 09:17:00,44.7,30.4,30.33,NNE,32,1.0,1.0,57,0.00,,,0.00,Wunderground v.1.15,2013-01-22 15:17:00,
2013-01-22 09:22:00,44.8,30.0,30.33,North,5,2.0,2.0,56,0.00,,,0.00,Wunderground v.1.15,2013-01-22 15:22:00,
2013-01-22 09:32:00,45.4,31.0,30.34,NNW,329,0.0,2.0,57,0.00,,,0.00,Wunderground v.1.15,2013-01-22 15:32:00,
2013-01-22 09:42:00,46.0,30.3,30.34,WNW,298,1.0,4.0,54,0.00,,,0.00,Wunderground v.1.15,2013-01-22 15:42:00,
2013-01-22 09:47:00,46.2,30.0,30.34,ENE,69,1.0,1.0,53,0.00,,,0.00,Wunderground v.1.15,2013-01-22 15:47:00,
2013-01-22 09:52:00,46.6,30.8,30.33,NNE,22,1.0,1.0,54,0.00,,,0.00,Wunderground v.1.15,2013-01-22 15:52:00,
2013-01-22 09:57:00,46.9,30.6,30.33,WNW,287,1.0,1.0,53,0.00,,,0.00,Wunderground v.1.15,2013-01-22 15:57:00,
2013-01-22 10:07:00,47.4,31.6,30.33,NE,39,1.0,1.0,54,0.00,,,0.00,Wunderground v.1.15,2013-01-22 16:07:00,
2013-01-22 10:17:00,48.2,32.3,30.33,North,355,0.0,0.0,54,0.00,,,0.00,Wunderground v.1.15,2013-01-22 16:17:00,
2013-01-22 10:27:00,48.8,32.4,30.33,North,11,0.0,0.0,53,0.00,,,0.00,Wunderground v.1.15,2013-01-22 16:27:00,
2013-01-22 10:32:00,49.1,31.7,30.33,North,5,0.0,0.0,51,0.00,,,0.00,Wunderground v.1.15,2013-01-22 16:32:00,
2013-01-22 10:42:00,49.7,31.3,30.32,NE,39,0.0,1.0,49,0.00,,,0.00,Wunderground v.1.15,2013-01-22 16:42:00,
2013-01-22 10:47:00,50.0,32.1,30.32,NE,45,1.0,1.0,50,0.00,,,0.00,Wunderground v.1.15,2013-01-22 16:47:00,
2013-01-22 10:52:00,50.5,33.0,30.33,NNE,21,1.0,1.0,51,0.00,,,0.00,Wunderground v.1.15,2013-01-22 16:52:00,
2013-01-22 10:57:00,51.0,33.0,30.33,ENE,67,0.0,0.0,50,0.00,,,0.00,Wunderground v.1.15,2013-01-22 16:57:00,
2013-01-22 11:07:00,52.1,33.0,30.32,South,178,0.0,2.0,48,0.00,,,0.00,Wunderground v.1.15,2013-01-22 17:07:00,
2013-01-22 11:12:00,52.5,34.9,30.32,NNW,332,0.0,2.0,51,0.00,,,0.00,Wunderground v.1.15,2013-01-22 17:12:00,
2013-01-22 11:17:00,52.9,33.7,30.32,North,10,0.0,2.0,48,0.00,,,0.00,Wunderground v.1.15,2013-01-22 17:17:00,
2013-01-22 11:22:00,53.2,34.5,30.32,NNE,16,0.0,2.0,49,0.00,,,0.00,Wunderground v.1.15,2013-01-22 17:22:00,
2013-01-22 11:27:00,53.5,33.7,30.31,East,96,0.0,0.0,47,0.00,,,0.00,Wunderground v.1.15,2013-01-22 17:27:00,
2013-01-22 11:32:00,53.7,33.4,30.31,NNE,32,0.0,0.0,46,0.00,,,0.00,Wunderground v.1.15,2013-01-22 17:32:00,
2013-01-22 11:42:00,54.5,35.2,30.31,NNE,22,0.0,0.0,48,0.00,,,0.00,Wunderground v.1.15,2013-01-22 17:42:00,
2013-01-22 11:47:00,54.6,34.2,30.31,NE,40,0.0,0.0,46,0.00,,,0.00,Wunderground v.1.15,2013-01-22 17:47:00,
2013-01-22 11:52:00,54.4,34.6,30.31,NE,42,0.0,1.0,47,0.00,,,0.00,Wunderground v.1.15,2013-01-22 17:52:00,
2013-01-22 12:07:00,54.3,36.5,30.30,NW,325,0.0,1.0,51,0.00,,,0.00,Wunderground v.1.15,2013-01-22 18:07:00,
2013-01-22 12:12:00,54.6,36.8,30.29,North,5,0.0,1.0,51,0.00,,,0.00,Wunderground v.1.15,2013-01-22 18:12:00,
2013-01-22 12:17:00,54.9,37.6,30.29,WSW,238,0.0,0.0,52,0.00,,,0.00,Wunderground v.1.15,2013-01-22 18:17:00,
2013-01-22 12:22:00,55.0,37.2,30.29,WSW,238,0.0,0.0,51,0.00,,,0.00,Wunderground v.1.15,2013-01-22 18:22:00,
2013-01-22 12:27:00,54.9,36.6,30.29,ENE,61,0.0,0.0,50,0.00,,,0.00,Wunderground v.1.15,2013-01-22 18:27:00,
2013-01-22 12:32:00,54.7,37.9,30.28,ENE,61,0.0,0.0,53,0.00,,,0.00,Wunderground v.1.15,2013-01-22 18:32:00,
2013-01-22 12:42:00,54.4,38.1,30.28,NE,44,0.0,0.0,54,0.00,,,0.00,Wunderground v.1.15,2013-01-22 18:42:00,
2013-01-22 12:47:00,54.2,38.4,30.27,SW,221,0.0,2.0,55,0.00,,,0.00,Wunderground v.1.15,2013-01-22 18:47:00,
2013-01-22 12:52:00,54.2,37.9,30.27,North,349,0.0,2.0,54,0.00,,,0.00,Wunderground v.1.15,2013-01-22 18:52:00,
2013-01-22 12:57:00,54.1,37.8,30.27,NNE,21,0.0,0.0,54,0.00,,,0.00,Wunderground v.1.15,2013-01-22 18:57:00,
2013-01-22 13:07:00,54.1,38.7,30.27,WNW,292,0.0,1.0,56,0.00,,,0.00,Wunderground v.1.15,2013-01-22 19:07:00,
2013-01-22 13:12:00,54.1,38.7,30.26,NNW,333,0.0,1.0,56,0.00,,,0.00,Wunderground v.1.15,2013-01-22 19:12:00,
2013-01-22 13:17:00,54.1,38.3,30.26,NNE,17,0.0,0.0,55,0.00,,,0.00,Wunderground v.1.15,2013-01-22 19:17:00,
2013-01-22 13:22:00,54.1,39.2,30.26,NNE,17,0.0,0.0,57,0.00,,,0.00,Wunderground v.1.15,2013-01-22 19:22:00,
2013-01-22 13:27:00,54.2,39.7,30.26,West,276,0.0,0.0,58,0.00,,,0.00,Wunderground v.1.15,2013-01-22 19:27:00,
2013-01-22 13:32:00,54.3,39.8,30.26,NE,36,0.0,0.0,58,0.00,,,0.00,Wunderground v.1.15,2013-01-22 19:32:00,
2013-01-22 13:37:00,54.6,40.1,30.26,North,5,0.0,0.0,58,0.00,,,0.00,Wunderground v.1.15,2013-01-22 19:37:00,
2013-01-22 13:42:00,54.7,38.8,30.26,NE,52,0.0,0.0,55,0.00,,,0.00,Wunderground v.1.15,2013-01-22 19:42:00,
2013-01-22 13:47:00,54.9,40.4,30.26,NE,52,0.0,0.0,58,0.00,,,0.00,Wunderground v.1.15,2013-01-22 19:47:00,
2013-01-22 13:57:00,55.4,41.3,30.25,West,262,0.0,0.0,59,0.00,,,0.00,Wunderground v.1.15,2013-01-22 19:57:00,
2013-01-22 14:07:00,55.9,40.9,30.25,West,259,0.0,0.0,57,0.00,,,0.00,Wunderground v.1.15,2013-01-22 20:07:00,
2013-01-22 14:12:00,55.9,40.4,30.25,West,259,0.0,0.0,56,0.00,,,0.00,Wunderground v.1.15,2013-01-22 20:12:00,
2013-01-22 14:17:00,55.9,41.3,30.26,West,259,0.0,0.0,58,0.00,,,0.00,Wunderground v.1.15,2013-01-22 20:17:00,
2013-01-22 14:22:00,55.8,40.8,30.25,West,259,0.0,0.0,57,0.00,,,0.00,Wunderground v.1.15,2013-01-22 20:22:00,
2013-01-22 14:32:00,55.6,41.0,30.25,West,259,0.0,0.0,58,0.00,,,0.00,Wunderground v.1.15,2013-01-22 20:32:00,
2013-01-22 14:37:00,55.5,41.0,30.25,West,259,0.0,0.0,58,0.00,,,0.00,Wunderground v.1.15,2013-01-22 20:37:00,
2013-01-22 14:42:00,55.5,41.0,30.25,South,169,0.0,0.0,58,0.00,,,0.00,Wunderground v.1.15,2013-01-22 20:42:00,
2013-01-22 14:47:00,55.5,41.4,30.25,South,169,0.0,0.0,59,0.00,,,0.00,Wunderground v.1.15,2013-01-22 20:47:00,
2013-01-22 14:52:00,55.6,41.0,30.25,NE,46,0.0,0.0,58,0.00,,,0.00,Wunderground v.1.15,2013-01-22 20:52:00,
2013-01-22 15:07:00,55.8,40.3,30.26,ENE,78,0.0,0.0,56,0.00,,,0.00,Wunderground v.1.15,2013-01-22 21:07:00,
2013-01-22 15:17:00,56.0,40.1,30.26,East,101,0.0,0.0,55,0.00,,,0.00,Wunderground v.1.15,2013-01-22 21:17:00,
2013-01-22 15:22:00,56.1,40.1,30.26,East,98,0.0,0.0,55,0.00,,,0.00,Wunderground v.1.15,2013-01-22 21:22:00,
2013-01-22 15:27:00,56.1,39.7,30.26,East,92,0.0,0.0,54,0.00,,,0.00,Wunderground v.1.15,2013-01-22 21:27:00,
2013-01-22 15:32:00,56.1,40.6,30.26,East,92,0.0,0.0,56,0.00,,,0.00,Wunderground v.1.15,2013-01-22 21:32:00,
2013-01-22 15:37:00,56.1,39.7,30.26,East,93,0.0,0.0,54,0.00,,,0.00,Wunderground v.1.15,2013-01-22 21:37:00,
2013-01-22 15:42:00,56.0,40.5,30.26,East,93,0.0,0.0,56,0.00,,,0.00,Wunderground v.1.15,2013-01-22 21:42:00,
2013-01-22 15:47:00,56.0,40.5,30.26,ENE,76,0.0,0.0,56,0.00,,,0.00,Wunderground v.1.15,2013-01-22 21:47:00,
2013-01-22 15:52:00,56.0,40.5,30.26,ENE,76,0.0,0.0,56,0.00,,,0.00,Wunderground v.1.15,2013-01-22 21:52:00,
2013-01-22 15:57:00,56.0,41.4,30.26,ENE,76,0.0,0.0,58,0.00,,,0.00,Wunderground v.1.15,2013-01-22 21:57:00,
2013-01-22 16:07:00,55.9,41.8,30.26,NE,51,0.0,0.0,59,0.00,,,0.00,Wunderground v.1.15,2013-01-22 22:07:00,
2013-01-22 16:12:00,55.8,40.3,30.26,NE,49,0.0,0.0,56,0.00,,,0.00,Wunderground v.1.15,2013-01-22 22:12:00,
2013-01-22 16:17:00,55.8,40.3,30.26,ESE,103,0.0,1.0,56,0.00,,,0.00,Wunderground v.1.15,2013-01-22 22:17:00,
2013-01-22 16:22:00,55.9,39.5,30.26,NE,55,0.0,1.0,54,0.00,,,0.00,Wunderground v.1.15,2013-01-22 22:22:00,
2013-01-22 16:27:00,56.0,39.6,30.26,NNE,15,0.0,0.0,54,0.00,,,0.00,Wunderground v.1.15,2013-01-22 22:27:00,
2013-01-22 16:32:00,56.0,40.5,30.26,NNE,15,0.0,0.0,56,0.00,,,0.00,Wunderground v.1.15,2013-01-22 22:32:00,
2013-01-22 16:37:00,55.8,41.2,30.26,NNE,15,0.0,0.0,58,0.00,,,0.00,Wunderground v.1.15,2013-01-22 22:37:00,
2013-01-22 16:42:00,55.6,40.1,30.26,NNE,15,0.0,0.0,56,0.00,,,0.00,Wunderground v.1.15,2013-01-22 22:42:00,
2013-01-22 16:47:00,55.4,39.5,30.26,North,355,0.0,0.0,55,0.00,,,0.00,Wunderground v.1.15,2013-01-22 22:47:00,
2013-01-22 16:52:00,55.3,39.9,30.27,North,355,0.0,0.0,56,0.00,,,0.00,Wunderground v.1.15,2013-01-22 22:52:00,
2013-01-22 16:57:00,55.0,40.5,30.26,North,355,0.0,0.0,58,0.00,,,0.00,Wunderground v.1.15,2013-01-22 22:57:00,
2013-01-22 17:07:00,54.4,40.8,30.26,North,355,0.0,0.0,60,0.00,,,0.00,Wunderground v.1.15,2013-01-22 23:07:00,
2013-01-22 17:12:00,54.0,40.8,30.26,North,355,0.0,0.0,61,0.00,,,0.00,Wunderground v.1.15,2013-01-22 23:12:00,
2013-01-22 17:17:00,53.6,40.9,30.27,North,355,0.0,0.0,62,0.00,,,0.00,Wunderground v.1.15,2013-01-22 23:17:00,
2013-01-22 17:22:00,53.2,40.5,30.26,North,355,0.0,0.0,62,0.00,,,0.00,Wunderground v.1.15,2013-01-22 23:22:00,
2013-01-22 17:27:00,52.7,40.0,30.27,North,355,0.0,0.0,62,0.00,,,0.00,Wunderground v.1.15,2013-01-22 23:27:00,
2013-01-22 17:32:00,52.3,40.1,30.27,North,355,0.0,0.0,63,0.00,,,0.00,Wunderground v.1.15,2013-01-22 23:32:00,
2013-01-22 17:37:00,51.8,39.6,30.27,North,355,0.0,0.0,63,0.00,,,0.00,Wunderground v.1.15,2013-01-22 23:37:00,
2013-01-22 17:42:00,51.5,40.1,30.27,North,355,0.0,0.0,65,0.00,,,0.00,Wunderground v.1.15,2013-01-22 23:42:00,
2013-01-22 17:47:00,51.2,39.8,30.27,North,355,0.0,0.0,65,0.00,,,0.00,Wunderground v.1.15,2013-01-22 23:47:00,
2013-01-22 17:52:00,50.8,39.1,30.27,North,355,0.0,0.0,64,0.00,,,0.00,Wunderground v.1.15,2013-01-22 23:52:00,
2013-01-22 17:57:00,50.6,38.9,30.27,North,355,0.0,0.0,64,0.00,,,0.00,Wunderground v.1.15,2013-01-22 23:57:00,
2013-01-22 18:07:00,50.4,39.5,30.27,North,355,0.0,0.0,66,0.00,,,0.00,Wunderground v.1.15,2013-01-23 00:07:00,
2013-01-22 18:12:00,50.3,39.8,30.27,North,355,0.0,0.0,67,0.00,,,0.00,Wunderground v.1.15,2013-01-23 00:12:00,
2013-01-22 18:17:00,50.1,39.6,30.27,North,355,0.0,0.0,67,0.00,,,0.00,Wunderground v.1.15,2013-01-23 00:17:00,
2013-01-22 18:22:00,49.9,38.6,30.27,North,355,0.0,0.0,65,0.00,,,0.00,Wunderground v.1.15,2013-01-23 00:22:00,
2013-01-22 18:27:00,49.7,38.8,30.27,North,355,0.0,0.0,66,0.00,,,0.00,Wunderground v.1.15,2013-01-23 00:27:00,
2013-01-22 18:32:00,49.6,39.1,30.27,North,355,0.0,0.0,67,0.00,,,0.00,Wunderground v.1.15,2013-01-23 00:32:00,
2013-01-22 18:37:00,49.4,39.3,30.27,North,355,0.0,0.0,68,0.00,,,0.00,Wunderground v.1.15,2013-01-23 00:37:00,
2013-01-22 18:42:00,49.2,39.1,30.28,North,355,0.0,0.0,68,0.00,,,0.00,Wunderground v.1.15,2013-01-23 00:42:00,
2013-01-22 18:47:00,49.0,38.5,30.28,North,355,0.0,0.0,67,0.00,,,0.00,Wunderground v.1.15,2013-01-23 00:47:00,
2013-01-22 18:52:00,48.8,38.7,30.28,North,355,0.0,0.0,68,0.00,,,0.00,Wunderground v.1.15,2013-01-23 00:52:00,
2013-01-22 18:57:00,48.7,39.0,30.28,North,355,0.0,0.0,69,0.00,,,0.00,Wunderground v.1.15,2013-01-23 00:57:00,
2013-01-22 19:07:00,48.2,38.5,30.28,North,355,0.0,0.0,69,0.00,,,0.00,Wunderground v.1.15,2013-01-23 01:07:00,
2013-01-22 19:12:00,48.1,38.0,30.29,North,355,0.0,0.0,68,0.00,,,0.00,Wunderground v.1.15,2013-01-23 01:12:00,
2013-01-22 19:17:00,47.8,37.7,30.29,North,355,0.0,0.0,68,0.00,,,0.00,Wunderground v.1.15,2013-01-23 01:17:00,
2013-01-22 19:22:00,47.7,37.7,30.29,North,355,0.0,0.0,68,0.00,,,0.00,Wunderground v.1.15,2013-01-23 01:22:00,
2013-01-22 19:27:00,47.5,37.8,30.29,North,355,0.0,0.0,69,0.00,,,0.00,Wunderground v.1.15,2013-01-23 01:27:00,
2013-01-22 19:32:00,47.4,37.7,30.29,North,355,0.0,0.0,69,0.00,,,0.00,Wunderground v.1.15,2013-01-23 01:32:00,
2013-01-22 19:37:00,47.2,37.5,30.29,North,355,0.0,0.0,69,0.00,,,0.00,Wunderground v.1.15,2013-01-23 01:37:00,
2013-01-22 19:42:00,46.9,37.3,30.29,North,355,0.0,0.0,69,0.00,,,0.00,Wunderground v.1.15,2013-01-23 01:42:00,
2013-01-22 19:47:00,46.8,37.5,30.29,North,355,0.0,0.0,70,0.00,,,0.00,Wunderground v.1.15,2013-01-23 01:47:00,
2013-01-22 19:52:00,46.7,37.4,30.29,North,355,0.0,0.0,70,0.00,,,0.00,Wunderground v.1.15,2013-01-23 01:52:00,
2013-01-22 19:57:00,46.6,37.3,30.29,North,355,0.0,0.0,70,0.00,,,0.00,Wunderground v.1.15,2013-01-23 01:57:00,
2013-01-22 20:07:00,46.4,37.5,30.29,North,355,0.0,0.0,71,0.00,,,0.00,Wunderground v.1.15,2013-01-23 02:07:00,
2013-01-22 20:12:00,46.3,37.4,30.30,North,355,0.0,0.0,71,0.00,,,0.00,Wunderground v.1.15,2013-01-23 02:12:00,
2013-01-22 20:17:00,46.2,37.3,30.30,North,355,0.0,0.0,71,0.00,,,0.00,Wunderground v.1.15,2013-01-23 02:17:00,
2013-01-22 20:22:00,46.2,37.3,30.30,North,355,0.0,0.0,71,0.00,,,0.00,Wunderground v.1.15,2013-01-23 02:22:00,
2013-01-22 20:27:00,46.2,37.7,30.30,North,355,0.0,0.0,72,0.00,,,0.00,Wunderground v.1.15,2013-01-23 02:27:00,
2013-01-22 20:32:00,46.2,37.3,30.30,North,355,0.0,0.0,71,0.00,,,0.00,Wunderground v.1.15,2013-01-23 02:32:00,
2013-01-22 20:37:00,46.2,37.3,30.30,North,355,0.0,0.0,71,0.00,,,0.00,Wunderground v.1.15,2013-01-23 02:37:00,
2013-01-22 20:42:00,46.2,37.3,30.30,North,355,0.0,0.0,71,0.00,,,0.00,Wunderground v.1.15,2013-01-23 02:42:00,
2013-01-22 20:47:00,46.3,37.4,30.30,North,355,0.0,0.0,71,0.00,,,0.00,Wunderground v.1.15,2013-01-23 02:47:00,
2013-01-22 20:52:00,46.4,37.5,30.31,North,355,0.0,0.0,71,0.00,,,0.00,Wunderground v.1.15,2013-01-23 02:52:00,
2013-01-22 20:57:00,46.4,37.1,30.31,North,355,0.0,0.0,70,0.00,,,0.00,Wunderground v.1.15,2013-01-23 02:57:00,
2013-01-22 21:07:00,46.5,36.9,30.31,North,355,0.0,0.0,69,0.00,,,0.00,Wunderground v.1.15,2013-01-23 03:07:00,
2013-01-22 21:12:00,46.5,37.6,30.31,North,355,0.0,0.0,71,0.00,,,0.00,Wunderground v.1.15,2013-01-23 03:12:00,
2013-01-22 21:17:00,46.5,37.2,30.31,North,355,0.0,0.0,70,0.00,,,0.00,Wunderground v.1.15,2013-01-23 03:17:00,
2013-01-22 21:22:00,46.5,36.5,30.31,North,355,0.0,0.0,68,0.00,,,0.00,Wunderground v.1.15,2013-01-23 03:22:00,
2013-01-22 21:27:00,46.6,36.6,30.31,North,355,0.0,0.0,68,0.00,,,0.00,Wunderground v.1.15,2013-01-23 03:27:00,
2013-01-22 21:32:00,46.6,36.6,30.31,North,355,0.0,0.0,68,0.00,,,0.00,Wunderground v.1.15,2013-01-23 03:32:00,
2013-01-22 21:37:00,46.6,37.0,30.31,North,355,0.0,0.0,69,0.00,,,0.00,Wunderground v.1.15,2013-01-23 03:37:00,
2013-01-22 21:42:00,46.5,37.2,30.31,North,355,0.0,0.0,70,0.00,,,0.00,Wunderground v.1.15,2013-01-23 03:42:00,
2013-01-22 21:47:00,46.5,36.9,30.32,North,355,0.0,0.0,69,0.00,,,0.00,Wunderground v.1.15,2013-01-23 03:47:00,
2013-01-22 21:52:00,46.5,36.9,30.32,North,355,0.0,0.0,69,0.00,,,0.00,Wunderground v.1.15,2013-01-23 03:52:00,
2013-01-22 21:57:00,46.5,37.2,30.32,North,355,0.0,0.0,70,0.00,,,0.00,Wunderground v.1.15,2013-01-23 03:57:00,
2013-01-22 22:07:00,46.3,37.8,30.32,North,355,0.0,0.0,72,0.00,,,0.00,Wunderground v.1.15,2013-01-23 04:07:00,
2013-01-22 22:12:00,46.1,37.6,30.32,North,355,0.0,0.0,72,0.00,,,0.00,Wunderground v.1.15,2013-01-23 04:12:00,
2013-01-22 22:17:00,45.9,37.0,30.32,North,355,0.0,0.0,71,0.00,,,0.00,Wunderground v.1.15,2013-01-23 04:17:00,
2013-01-22 22:22:00,45.9,36.7,30.32,North,355,0.0,0.0,70,0.00,,,0.00,Wunderground v.1.15,2013-01-23 04:22:00,
2013-01-22 22:27:00,45.8,37.3,30.32,North,355,0.0,0.0,72,0.00,,,0.00,Wunderground v.1.15,2013-01-23 04:27:00,
2013-01-22 22:32:00,45.8,36.6,30.32,North,355,0.0,0.0,70,0.00,,,0.00,Wunderground v.1.15,2013-01-23 04:32:00,
2013-01-22 22:37:00,45.9,36.7,30.32,North,355,0.0,0.0,70,0.00,,,0.00,Wunderground v.1.15,2013-01-23 04:37:00,
2013-01-22 22:42:00,45.9,37.0,30.32,North,355,0.0,0.0,71,0.00,,,0.00,Wunderground v.1.15,2013-01-23 04:42:00,
2013-01-22 22:47:00,45.9,37.0,30.31,North,355,0.0,0.0,71,0.00,,,0.00,Wunderground v.1.15,2013-01-23 04:47:00,
2013-01-22 22:52:00,45.8,36.9,30.32,North,355,0.0,0.0,71,0.00,,,0.00,Wunderground v.1.15,2013-01-23 04:52:00,
2013-01-22 22:57:00,45.7,36.8,30.32,North,355,0.0,0.0,71,0.00,,,0.00,Wunderground v.1.15,2013-01-23 04:57:00,
2013-01-22 23:07:00,45.8,36.6,30.32,North,355,0.0,0.0,70,0.00,,,0.00,Wunderground v.1.15,2013-01-23 05:07:00,
2013-01-22 23:12:00,45.7,36.8,30.32,North,355,0.0,0.0,71,0.00,,,0.00,Wunderground v.1.15,2013-01-23 05:12:00,
2013-01-22 23:17:00,45.7,36.1,30.32,North,355,0.0,0.0,69,0.00,,,0.00,Wunderground v.1.15,2013-01-23 05:17:00,
2013-01-22 23:22:00,45.6,36.4,30.32,North,355,0.0,0.0,70,0.00,,,0.00,Wunderground v.1.15,2013-01-23 05:22:00,
2013-01-22 23:27:00,45.5,36.6,30.32,North,355,0.0,0.0,71,0.00,,,0.00,Wunderground v.1.15,2013-01-23 05:27:00,
2013-01-22 23:32:00,45.4,36.5,30.32,North,355,0.0,0.0,71,0.00,,,0.00,Wunderground v.1.15,2013-01-23 05:32:00,
2013-01-22 23:37:00,45.1,36.6,30.32,North,355,0.0,0.0,72,0.00,,,0.00,Wunderground v.1.15,2013-01-23 05:37:00,
2013-01-22 23:42:00,45.0,36.9,30.32,North,355,0.0,0.0,73,0.00,,,0.00,Wunderground v.1.15,2013-01-23 05:42:00,
2013-01-22 23:47:00,44.8,36.7,30.32,North,355,0.0,0.0,73,0.00,,,0.00,Wunderground v.1.15,2013-01-23 05:47:00,
2013-01-22 23:52:00,44.5,36.7,30.32,North,355,0.0,0.0,74,0.00,,,0.00,Wunderground v.1.15,2013-01-23 05:52:00,
2013-01-22 23:57:00,44.3,36.5,30.32,North,355,0.0,0.0,74,0.00,,,0.00,Wunderground v.1.15,2013-01-23 05:57:00,